首页
METAR-TAF:

METAR-TAF

机场 :

石油平台

Ekofisk, 挪威

纬度: 56-33N, 经度: 003-15E, 海拔: 3米

当前天气观测

该预报发布于37分钟前的07:20 UTC
风速12节,风向西
温度 7°C
湿度 93%
气压 1034 hPa
能见度10公里或以上
少量云层高于1000英尺
散云层高于3000英尺

METAR: ENLE 220720Z 28012KT 9999 FEW010 SCT030 07/06 Q1034 W08/S4

时间: 08:57 (07:57 UTC)

预报

该预报发布于2小时和57分钟前的05:00 UTC
预报有效从22日的 06点(UTC)到 22日的 15点(UTC)
风速15节,风向西北
能見度: 9000
散云层高于500英尺
多云层高于4000英尺
几率 30%
从 22日的 06点(UTC)到 22日的 15点(UTC)
多云层高于500英尺
成为
从 22日的 10点(UTC)到 22日的 12点(UTC)
风速8节,风向西

TAF: ENLE 220500Z 2206/2215 32015KT 9000 SCT005 BKN040 PROB30 2206/2215 BKN005 BECMG 2210/2212 26008KT

超过4000个机场的气象观测和天气预报(METAR&TAF报告)。

可查询的气象台以黄色和红色小点在地图上表示。

将鼠标移到小点上方,可查看气象台名称。

然后点击查看天气观测和预报。

如需切换地图:点击带黑十字的绿色按钮放大地图;点击带横线的绿色按钮缩小地图;或者点击绿色箭头查看邻近地区的地图。


METAR-TAF: